Time;durP1;ratioP1;P1;durP2;ratioP2;P2;SDS_P1;SDS_P2;PMS_P1;PMS_P2;Temp;Humidity;BMP_temperature;BMP_pressure;BME280_temperature;BME280_humidity;BME280_pressure;Samples;Min_cycle;Max_cycle;Signal;HPM_P1;HPM_P2
2022/07/17 08:49:46;;;;;;;1.20;0.82;;;;;;;17.29;65.45;99818.57;1793259;78;23199;-67
2022/07/17 08:52:13;;;;;;;0.85;0.80;;;;;;;18.55;60.96;99810.21;1763456;80;21123;-65
2022/07/17 08:54:41;;;;;;;0.78;0.60;;;;;;;19.01;56.60;99805.02;1760146;80;21831;-64
2022/07/17 08:57:09;;;;;;;1.10;0.70;;;;;;;19.09;55.28;99788.44;1771157;79;20950;-66
2022/07/17 08:59:36;;;;;;;0.70;0.70;;;;;;;18.99;55.14;99792.78;1762211;80;21530;-66
2022/07/17 09:02:04;;;;;;;2.17;1.27;;;;;;;19.20;54.18;99784.97;1768277;79;21530;-66
2022/07/17 09:04:31;;;;;;;2.95;1.25;;;;;;;19.63;54.95;99780.31;1753036;79;21407;-67
2022/07/17 09:07:03;;;;;;;1.37;1.02;;;;;;;19.82;52.73;99769.91;1775643;79;21829;-66
2022/07/17 09:09:33;;;;;;;0.80;0.50;;;;;;;20.02;50.12;99779.00;1760923;80;21431;-67
2022/07/17 09:12:04;;;;;;;1.10;0.68;;;;;;;20.10;48.34;99774.84;1768224;79;21423;-67
2022/07/17 09:14:58;;;;;;;2.02;0.60;;;;;;;19.54;49.94;99771.20;1758694;79;21472;-67
2022/07/17 09:17:27;;;;;;;0.78;0.57;;;;;;;19.83;49.07;99764.08;1734807;80;21565;-66
2022/07/17 09:19:54;;;;;;;0.98;0.75;;;;;;;20.07;47.60;99767.11;1729725;80;22219;-67
2022/07/17 09:22:23;;;;;;;0.93;0.83;;;;;;;20.14;47.93;99769.16;1748414;80;21547;-67
2022/07/17 09:24:53;;;;;;;0.80;0.80;;;;;;;20.23;47.23;99766.23;1723550;81;21470;-67
2022/07/17 09:27:29;;;;;;;1.25;0.80;;;;;;;20.37;47.78;99767.77;1736062;80;21455;-66
2022/07/17 09:30:11;;;;;;;1.62;0.85;;;;;;;20.50;45.69;99766.28;1733638;80;21404;-67
2022/07/17 09:32:40;;;;;;;2.33;0.70;;;;;;;20.57;44.52;99768.32;1737849;80;21814;-68
2022/07/17 09:35:10;;;;;;;2.22;0.60;;;;;;;20.57;44.52;99768.32;1731648;80;21650;-67
2022/07/17 09:37:37;;;;;;;1.20;0.50;;;;;;;20.63;41.88;99769.67;1742155;80;21461;-65
2022/07/17 09:41:09;;;;;;;0.50;0.50;;;;;;;20.60;40.97;99766.74;1729919;80;21495;-65
2022/07/17 09:42:40;;;;;;;0.62;0.50;;;;;;;20.63;43.16;99769.67;1736128;80;21012;-65
2022/07/17 09:45:09;;;;;;;1.02;0.60;;;;;;;20.63;43.16;99769.67;1745229;80;21837;-65
2022/07/17 09:47:38;;;;;;;0.95;0.47;;;;;;;20.75;43.33;99775.81;1743327;80;21430;-65
2022/07/17 09:50:08;;;;;;;1.32;0.60;;;;;;;20.90;43.54;99767.00;1729044;81;20952;-65
2022/07/17 09:52:37;;;;;;;2.35;0.85;;;;;;;20.86;41.01;99773.09;1729243;80;21417;-64
2022/07/17 09:55:05;;;;;;;1.22;0.70;;;;;;;20.86;41.01;99773.09;1742379;80;21540;-65
2022/07/17 09:57:33;;;;;;;0.75;0.55;;;;;;;20.86;42.94;99768.24;1730156;81;21803;-64
2022/07/17 10:00:03;;;;;;;;;;;;;;;20.86;42.94;99768.24;1743638;80;21510;-63
2022/07/17 10:02:32;;;;;;;1.92;0.70;;;;;;;20.85;41.86;99775.42;1732372;80;20518;-66
2022/07/17 10:04:58;;;;;;;2.20;0.78;;;;;;;20.82;42.61;99770.31;1733029;80;21600;-64
2022/07/17 10:07:25;;;;;;;3.67;0.80;;;;;;;20.85;42.73;99772.75;1734810;80;21531;-64
2022/07/17 10:09:52;;;;;;;2.62;0.70;;;;;;;20.86;42.88;99773.09;1709409;82;21829;-65
2022/07/17 10:12:18;;;;;;;0.80;0.80;;;;;;;20.83;41.82;99785.86;1690661;83;21604;-66
2022/07/17 10:14:47;;;;;;;3.35;0.90;;;;;;;20.84;42.35;99768.36;1683388;83;22582;-65
2022/07/17 10:17:14;;;;;;;1.35;0.75;;;;;;;21.06;41.83;99771.89;1687102;82;21561;-65
2022/07/17 10:19:55;;;;;;;3.65;0.72;;;;;;;21.19;41.94;99760.51;1674254;84;21534;-65
2022/07/17 10:22:23;;;;;;;6.30;0.60;;;;;;;21.25;42.77;99784.53;1679669;84;21727;-65
2022/07/17 10:24:52;;;;;;;;;;;;;;;21.35;42.94;99764.07;1684332;82;21967;-64
2022/07/17 10:27:24;;;;;;;3.77;0.50;;;;;;;21.37;41.50;99755.42;1681016;84;20430;-65
2022/07/17 10:30:07;;;;;;;0.85;0.53;;;;;;;21.48;42.35;99750.53;1674417;82;21540;-62
2022/07/17 10:32:34;;;;;;;1.47;0.75;;;;;;;21.58;42.29;99752.24;1679494;82;21459;-65
2022/07/17 10:35:09;;;;;;;3.12;0.90;;;;;;;21.58;42.29;99752.24;1738992;81;21889;-65
2022/07/17 10:37:40;;;;;;;1.92;0.57;;;;;;;21.61;42.62;99751.65;1714762;81;21407;-65
2022/07/17 10:40:25;;;;;;;0.82;0.55;;;;;;;21.70;40.84;99751.69;1726914;81;21487;-64
2022/07/17 10:43:04;;;;;;;1.35;0.60;;;;;;;21.83;39.51;99735.88;1727961;81;21550;-67
2022/07/17 10:45:39;;;;;;;1.15;0.45;;;;;;;21.98;38.35;99742.53;1724951;81;21534;-65
2022/07/17 10:48:09;;;;;;;2.02;0.50;;;;;;;21.98;38.35;99742.53;1718756;81;21773;-65
2022/07/17 10:50:40;;;;;;;2.17;0.60;;;;;;;21.86;37.76;99740.97;1676893;82;21649;-63
2022/07/17 10:53:16;;;;;;;0.65;0.47;;;;;;;21.77;37.11;99740.80;1709512;81;21478;-64
2022/07/17 10:55:48;;;;;;;0.40;0.40;;;;;;;21.50;37.40;99715.97;1720704;80;21104;-64
2022/07/17 10:58:23;;;;;;;0.40;0.40;;;;;;;21.61;38.25;99750.31;1726839;81;20987;-65
2022/07/17 11:01:10;;;;;;;0.75;0.57;;;;;;;21.62;38.53;99741.28;1725863;81;21836;-65
2022/07/17 11:03:43;;;;;;;1.45;0.40;;;;;;;21.58;39.36;99736.69;1724126;81;21400;-65
2022/07/17 11:06:20;;;;;;;0.60;0.40;;;;;;;21.60;39.49;99747.27;1722916;81;21503;-68
2022/07/17 11:08:56;;;;;;;0.40;0.40;;;;;;;21.38;39.38;99739.25;1721136;81;20966;-64
2022/07/17 11:11:47;;;;;;;1.50;0.40;;;;;;;21.22;40.21;99744.71;1725224;81;21614;-67
2022/07/17 11:14:20;;;;;;;1.07;0.55;;;;;;;21.08;40.68;99748.08;1731544;81;21550;-65
2022/07/17 11:16:53;;;;;;;4.47;0.60;;;;;;;21.06;41.03;99747.83;1722963;81;21468;-66
2022/07/17 11:19:35;;;;;;;0.65;0.57;;;;;;;21.01;40.84;99742.89;1722389;81;21529;-65
2022/07/17 11:22:04;;;;;;;0.57;0.57;;;;;;;21.07;41.58;99741.02;1718636;81;21557;-70
2022/07/17 11:24:45;;;;;;;2.35;0.72;;;;;;;21.07;41.58;99741.02;1719775;81;21431;-64
2022/07/17 11:27:28;;;;;;;0.98;0.75;;;;;;;21.22;40.43;99740.70;1724118;80;21565;-64
2022/07/17 11:29:57;;;;;;;1.95;0.40;;;;;;;21.34;40.56;99747.19;1727574;81;21553;-64
2022/07/17 11:32:27;;;;;;;2.65;0.45;;;;;;;21.35;41.04;99754.21;1735751;80;21527;-63
2022/07/17 11:34:54;;;;;;;2.75;0.80;;;;;;;21.14;41.00;99762.25;1723741;80;21054;-62
2022/07/17 11:37:25;;;;;;;0.65;0.57;;;;;;;21.14;42.69;99748.89;1730727;81;21633;-63
2022/07/17 11:39:51;;;;;;;0.95;0.50;;;;;;;21.33;41.58;99760.69;1726176;81;21799;-64
2022/07/17 11:42:21;;;;;;;0.90;0.68;;;;;;;21.33;41.58;99760.69;1731322;81;21415;-64
2022/07/17 11:44:54;;;;;;;2.67;0.60;;;;;;;21.36;42.03;99769.30;1730277;81;21949;-65
2022/07/17 11:47:29;;;;;;;0.70;0.47;;;;;;;21.61;42.59;99771.21;1718112;80;21621;-67
2022/07/17 11:50:14;;;;;;;1.30;0.70;;;;;;;21.56;41.61;99765.41;1724251;81;21529;-65
2022/07/17 11:52:48;;;;;;;1.45;0.60;;;;;;;21.73;42.21;99768.79;1726864;81;21804;-63
2022/07/17 11:55:15;;;;;;;0.60;0.50;;;;;;;21.73;42.21;99768.79;1726942;81;21555;-64
2022/07/17 11:57:47;;;;;;;0.85;0.60;;;;;;;21.91;41.99;99768.17;1716094;81;21017;-64
2022/07/17 12:00:16;;;;;;;0.98;0.65;;;;;;;22.01;41.08;99765.03;1732473;81;21532;-65
2022/07/17 12:02:44;;;;;;;2.67;0.50;;;;;;;21.94;41.51;99770.09;1726518;81;20982;-63
2022/07/17 12:05:11;;;;;;;1.17;0.70;;;;;;;21.90;40.67;99771.82;1721617;81;21810;-63
2022/07/17 12:07:46;;;;;;;3.50;0.50;;;;;;;21.85;40.33;99779.40;1731372;81;21578;-65
2022/07/17 12:10:22;;;;;;;0.60;0.50;;;;;;;21.78;39.65;99770.58;1722833;81;21487;-63
2022/07/17 12:13:02;;;;;;;1.75;0.50;;;;;;;21.80;40.84;99766.94;1728543;81;21599;-64
2022/07/17 12:15:46;;;;;;;0.37;0.37;;;;;;;21.92;41.30;99779.22;1729345;80;21568;-63
2022/07/17 12:18:28;;;;;;;0.55;0.55;;;;;;;21.91;41.28;99777.55;1734591;81;21872;-64
2022/07/17 12:20:57;;;;;;;1.57;0.60;;;;;;;21.74;40.90;99772.33;1728994;80;21433;-63
2022/07/17 12:23:38;;;;;;;1.22;0.80;;;;;;;21.45;40.63;99785.05;1714142;82;20968;-65
2022/07/17 12:26:11;;;;;;;0.78;0.72;;;;;;;21.24;40.96;99775.67;1735333;80;21443;-65
2022/07/17 12:28:39;;;;;;;4.97;0.78;;;;;;;21.05;40.94;99776.89;1722615;81;21544;-68
2022/07/17 12:31:07;;;;;;;1.77;0.75;;;;;;;20.96;41.68;99774.03;1725771;81;21917;-67
2022/07/17 12:33:34;;;;;;;1.42;0.70;;;;;;;20.98;42.04;99780.09;1728034;81;21393;-68
2022/07/17 12:36:01;;;;;;;1.23;0.70;;;;;;;21.33;41.92;99772.72;1710563;82;21021;-66
2022/07/17 12:38:28;;;;;;;0.60;0.60;;;;;;;21.33;41.92;99772.72;1708163;81;22066;-67
2022/07/17 12:40:55;;;;;;;2.12;0.90;;;;;;;21.35;40.58;99767.58;1728078;81;21584;-66
2022/07/17 12:43:22;;;;;;;1.12;0.75;;;;;;;21.41;40.95;99767.55;1722814;80;21802;-66
2022/07/17 12:45:49;;;;;;;1.57;0.90;;;;;;;21.57;40.83;99766.62;1731729;80;21569;-67
2022/07/17 12:48:15;;;;;;;0.65;0.60;;;;;;;21.66;39.11;99760.09;1717181;80;21507;-67
2022/07/17 12:50:42;;;;;;;4.90;1.27;;;;;;;21.58;38.77;99779.49;1725603;80;21505;-66
2022/07/17 12:53:10;;;;;;;0.70;0.60;;;;;;;21.45;39.74;99773.52;1722560;81;21592;-66
2022/07/17 12:55:37;;;;;;;1.52;0.70;;;;;;;21.38;39.15;99786.55;1729596;81;21831;-65
2022/07/17 12:58:05;;;;;;;4.22;0.80;;;;;;;21.25;39.99;99797.91;1725404;81;21403;-67
2022/07/17 13:00:32;;;;;;;0.82;0.40;;;;;;;21.09;41.49;99782.33;1744023;81;21506;-67
2022/07/17 13:02:59;;;;;;;1.05;0.30;;;;;;;21.14;41.97;99788.14;1724144;81;21587;-65
2022/07/17 13:05:26;;;;;;;1.02;0.50;;;;;;;21.35;43.37;99786.80;1704753;80;20943;-65
2022/07/17 13:07:53;;;;;;;3.70;0.50;;;;;;;21.52;42.86;99806.28;1720730;81;21792;-68
2022/07/17 13:10:20;;;;;;;0.45;0.45;;;;;;;21.51;42.18;99799.72;1714663;81;21518;-65
2022/07/17 13:12:49;;;;;;;0.75;0.50;;;;;;;21.53;41.93;99805.78;1724203;81;21624;-66
2022/07/17 13:15:15;;;;;;;2.92;0.45;;;;;;;21.58;42.41;99803.57;1718073;82;21520;-67
2022/07/17 13:17:42;;;;;;;0.62;0.60;;;;;;;21.66;41.58;99803.77;1726675;81;21510;-65
2022/07/17 13:20:11;;;;;;;1.65;0.65;;;;;;;21.66;41.78;99809.13;1724264;81;21930;-67
2022/07/17 13:22:38;;;;;;;1.10;0.50;;;;;;;21.73;41.02;99811.60;1714784;81;21064;-64
2022/07/17 13:25:05;;;;;;;2.08;0.78;;;;;;;21.73;41.02;99811.60;1712988;81;21407;-65
2022/07/17 13:27:32;;;;;;;0.93;0.42;;;;;;;21.72;41.43;99820.63;1728461;81;21593;-66
2022/07/17 13:29:59;;;;;;;3.37;0.60;;;;;;;21.52;41.35;99819.66;1725601;81;21556;-65
2022/07/17 13:32:26;;;;;;;0.50;0.50;;;;;;;21.28;41.94;99827.07;1719541;81;21937;-64
2022/07/17 13:34:53;;;;;;;0.78;0.50;;;;;;;21.04;41.62;99818.82;1719561;81;21542;-63
2022/07/17 13:37:20;;;;;;;1.12;0.57;;;;;;;20.86;41.53;99813.17;1731048;80;21034;-64
2022/07/17 13:39:46;;;;;;;3.40;0.50;;;;;;;20.51;41.83;99811.56;1727156;81;21512;-65
2022/07/17 13:42:13;;;;;;;4.28;0.57;;;;;;;20.51;41.83;99811.56;1732638;81;21629;-63
2022/07/17 13:44:40;;;;;;;0.70;0.47;;;;;;;20.41;42.29;99823.45;1726875;80;21521;-63
2022/07/17 13:47:07;;;;;;;2.22;0.50;;;;;;;20.36;42.79;99818.13;1733940;80;21435;-64
2022/07/17 13:49:34;;;;;;;0.57;0.40;;;;;;;20.36;42.94;99824.34;1721621;81;21562;-63
2022/07/17 13:52:02;;;;;;;0.30;0.30;;;;;;;20.38;42.83;99823.73;1721425;81;21627;-64
2022/07/17 13:54:29;;;;;;;0.40;0.40;;;;;;;20.55;43.72;99822.82;1728729;81;21542;-63
2022/07/17 13:56:57;;;;;;;0.60;0.50;;;;;;;20.64;42.19;99821.27;1733784;81;22080;-63
2022/07/17 13:59:23;;;;;;;0.40;0.40;;;;;;;20.64;42.17;99814.09;1726421;80;21470;-62
2022/07/17 14:01:50;;;;;;;0.78;0.37;;;;;;;20.67;41.38;99819.19;1736213;80;21519;-63
2022/07/17 14:04:17;;;;;;;1.87;0.98;;;;;;;20.61;44.36;99825.88;1722211;81;21463;-64
2022/07/17 14:06:45;;;;;;;3.00;0.68;;;;;;;20.61;44.36;99825.88;1732374;81;20939;-65
2022/07/17 14:09:12;;;;;;;;;;;;;;;20.82;44.61;99817.58;1722086;81;22037;-63
2022/07/17 14:11:40;;;;;;;4.37;0.50;;;;;;;21.06;43.90;99826.69;1730237;81;20415;-64
2022/07/17 14:14:07;;;;;;;0.70;0.60;;;;;;;21.23;43.87;99828.81;1726789;81;21583;-63
2022/07/17 14:16:34;;;;;;;1.17;0.55;;;;;;;21.34;43.86;99818.05;1722957;80;21701;-64
2022/07/17 14:19:01;;;;;;;0.65;0.50;;;;;;;21.34;43.86;99818.05;1733484;81;20996;-64
2022/07/17 14:21:36;;;;;;;4.87;0.50;;;;;;;21.68;43.19;99817.87;1718841;81;21967;-64
2022/07/17 14:24:05;;;;;;;2.35;0.50;;;;;;;21.85;42.94;99817.73;1726397;81;21459;-63
2022/07/17 14:26:33;;;;;;;0.60;0.60;;;;;;;21.82;43.42;99815.81;1731828;80;21513;-63
2022/07/17 14:29:00;;;;;;;0.40;0.40;;;;;;;21.81;43.54;99820.30;1739030;81;21004;-63
2022/07/17 14:31:27;;;;;;;6.25;0.50;;;;;;;21.45;43.21;99818.98;1736811;81;21570;-63
2022/07/17 14:33:54;;;;;;;0.80;0.40;;;;;;;21.45;43.21;99818.98;1734297;81;21928;-63
2022/07/17 14:36:21;;;;;;;3.50;0.50;;;;;;;21.45;42.92;99810.95;1727560;81;21073;-64
2022/07/17 14:38:47;;;;;;;1.10;0.62;;;;;;;21.51;43.16;99818.45;1725847;81;21503;-63
2022/07/17 14:41:14;;;;;;;0.50;0.50;;;;;;;21.45;42.91;99824.33;1742027;81;21515;-64
2022/07/17 14:43:41;;;;;;;0.95;0.30;;;;;;;21.23;42.66;99825.27;1727763;81;21553;-63
2022/07/17 14:46:08;;;;;;;1.85;0.40;;;;;;;21.11;42.90;99827.16;1732538;81;21587;-63
2022/07/17 14:48:35;;;;;;;0.33;0.30;;;;;;;21.03;43.96;99834.98;1724719;81;21597;-64
2022/07/17 14:51:02;;;;;;;1.52;0.30;;;;;;;21.10;43.98;99824.98;1728679;81;21506;-63
2022/07/17 14:53:29;;;;;;;0.40;0.30;;;;;;;21.15;43.68;99825.45;1720031;81;21564;-63
2022/07/17 14:55:56;;;;;;;1.17;0.40;;;;;;;21.33;42.90;99823.03;1721789;81;21500;-64
2022/07/17 14:58:23;;;;;;;0.75;0.33;;;;;;;21.69;41.62;99818.20;1695511;82;21559;-64
2022/07/17 15:00:50;;;;;;;3.22;0.28;;;;;;;21.69;41.62;99818.20;1705536;82;21553;-64
2022/07/17 15:03:16;;;;;;;0.30;0.30;;;;;;;21.84;40.70;99818.70;1702568;83;21576;-66
2022/07/17 15:05:43;;;;;;;0.37;0.30;;;;;;;21.84;40.70;99818.70;1700292;82;21490;-65
2022/07/17 15:08:09;;;;;;;0.72;0.40;;;;;;;21.78;40.14;99827.27;1707940;83;21024;-65
2022/07/17 15:10:37;;;;;;;;;;;;;;;21.93;40.07;99827.77;1704836;83;21485;-65
2022/07/17 15:13:04;;;;;;;0.85;0.30;;;;;;;21.91;40.25;99824.38;1700938;83;20423;-64
2022/07/17 15:15:32;;;;;;;0.30;0.30;;;;;;;21.60;40.80;99829.70;1698792;83;21502;-63
2022/07/17 15:17:58;;;;;;;1.20;0.37;;;;;;;21.66;40.96;99826.52;1700248;82;21476;-64
2022/07/17 15:20:25;;;;;;;0.50;0.40;;;;;;;21.56;41.26;99826.94;1695013;83;21673;-63
2022/07/17 15:22:52;;;;;;;0.50;0.37;;;;;;;21.46;40.97;99825.55;1690591;83;22041;-63
2022/07/17 15:25:19;;;;;;;1.05;0.50;;;;;;;21.08;41.75;99822.05;1691370;83;21576;-64
2022/07/17 15:27:46;;;;;;;0.40;0.30;;;;;;;20.87;41.83;99835.39;1689762;83;21468;-64
2022/07/17 15:30:13;;;;;;;1.12;0.47;;;;;;;20.73;42.05;99837.88;1648357;83;21690;-63
2022/07/17 15:32:40;;;;;;;0.13;0.13;;;;;;;20.52;41.39;99839.11;1698285;83;21032;-63
2022/07/17 15:35:08;;;;;;;3.98;0.50;;;;;;;20.32;41.69;99835.38;1695244;82;21837;-62
2022/07/17 15:37:37;;;;;;;0.62;0.47;;;;;;;20.11;41.21;99824.11;1699454;83;21488;-63
2022/07/17 15:40:05;;;;;;;0.40;0.28;;;;;;;19.83;41.06;99818.31;1693462;82;21546;-62
2022/07/17 15:42:32;;;;;;;4.65;1.65;;;;;;;19.62;41.64;99822.61;1695601;83;21507;-63
2022/07/17 15:44:58;;;;;;;4.85;2.92;;;;;;;19.50;41.44;99820.91;1697806;83;20982;-63
2022/07/17 15:47:25;;;;;;;1.60;1.15;;;;;;;19.34;42.10;99826.06;1685093;83;21833;-64
2022/07/17 15:49:52;;;;;;;191.30;129.57;;;;;;;19.31;42.32;99828.10;1699184;83;21456;-63
2022/07/17 15:52:18;;;;;;;25.90;18.12;;;;;;;19.26;42.81;99840.46;1694299;83;22046;-64
2022/07/17 15:54:45;;;;;;;17.17;11.05;;;;;;;19.15;42.35;99832.43;1704392;83;21057;-63
2022/07/17 15:57:12;;;;;;;21.02;15.30;;;;;;;19.15;42.35;99832.43;1697659;83;21590;-63
2022/07/17 15:59:39;;;;;;;72.05;44.83;;;;;;;19.01;42.33;99834.33;1694397;84;22018;-64
2022/07/17 16:02:06;;;;;;;29.18;20.17;;;;;;;18.97;43.01;99840.01;1687990;83;21641;-64
2022/07/17 16:04:33;;;;;;;12.28;8.08;;;;;;;18.97;43.55;99838.67;1695919;82;21520;-64
2022/07/17 16:07:00;;;;;;;128.18;83.12;;;;;;;18.96;43.18;99836.97;1706519;83;21464;-63
2022/07/17 16:09:28;;;;;;;106.27;74.47;;;;;;;18.92;43.88;99844.82;1692957;83;21491;-63
2022/07/17 16:11:55;;;;;;;69.20;34.13;;;;;;;18.93;43.50;99849.17;1691020;84;21843;-64
2022/07/17 16:14:22;;;;;;;200.60;101.07;;;;;;;18.90;43.42;99850.75;1697929;83;21436;-64
2022/07/17 16:16:49;;;;;;;72.72;39.38;;;;;;;19.02;43.59;99843.16;1704290;82;21598;-64
2022/07/17 16:19:16;;;;;;;37.20;21.45;;;;;;;19.28;43.25;99854.52;1706054;83;21503;-64
2022/07/17 16:21:44;;;;;;;305.52;157.60;;;;;;;19.45;42.87;99846.57;1696585;83;21620;-64
2022/07/17 16:24:10;;;;;;;182.50;119.20;;;;;;;19.63;42.82;99855.83;1697765;83;22239;-64
2022/07/17 16:26:38;;;;;;;354.98;270.10;;;;;;;19.73;42.85;99860.48;1687082;83;22029;-63
2022/07/17 16:29:09;;;;;;;535.50;476.80;;;;;;;19.87;42.97;99863.41;1705839;83;21552;-63
2022/07/17 16:31:34;;;;;;;504.30;449.62;;;;;;;19.90;43.08;99865.34;1698600;83;21440;-63
2022/07/17 16:34:01;;;;;;;134.05;102.75;;;;;;;19.86;43.10;99861.23;1699397;83;21487;-63
2022/07/17 16:36:28;;;;;;;224.60;191.12;;;;;;;19.67;43.38;99867.11;1703942;83;21763;-63
2022/07/17 16:38:55;;;;;;;61.25;51.63;;;;;;;19.48;43.87;99866.34;1701001;83;21448;-64
2022/07/17 16:41:22;;;;;;;25.57;22.90;;;;;;;19.30;43.99;99885.91;1695465;83;21514;-65
2022/07/17 16:43:49;;;;;;;534.40;476.50;;;;;;;19.15;44.44;99879.07;1690138;83;22697;-63
2022/07/17 16:46:15;;;;;;;948.85;755.67;;;;;;;18.97;45.07;99877.31;1687786;83;21516;-63
2022/07/17 16:48:42;;;;;;;16.13;14.43;;;;;;;18.84;45.57;99882.69;1697608;83;21621;-64
2022/07/17 16:51:09;;;;;;;76.75;64.95;;;;;;;18.64;46.03;99879.61;1698692;82;21586;-64
2022/07/17 16:53:35;;;;;;;288.42;254.30;;;;;;;18.59;46.27;99886.23;1692360;83;21407;-64
2022/07/17 16:56:02;;;;;;;754.70;630.60;;;;;;;18.50;46.76;99881.11;1691049;83;21438;-64
2022/07/17 16:58:29;;;;;;;62.85;55.67;;;;;;;18.38;47.03;99880.16;1698357;83;21593;-64
2022/07/17 17:00:56;;;;;;;247.77;221.70;;;;;;;18.31;47.51;99889.56;1705533;83;21824;-64
2022/07/17 17:03:23;;;;;;;96.32;80.92;;;;;;;18.23;47.72;99885.25;1694328;83;21550;-64
2022/07/17 17:05:50;;;;;;;525.98;416.95;;;;;;;18.18;48.16;99893.57;1684612;83;21621;-64
2022/07/17 17:08:17;;;;;;;24.25;18.87;;;;;;;18.09;48.35;99900.87;1694635;82;21018;-63
2022/07/17 17:10:43;;;;;;;147.75;134.05;;;;;;;18.02;48.75;99907.56;1699134;83;21038;-65
2022/07/17 17:13:10;;;;;;;58.87;53.42;;;;;;;17.87;49.32;99908.99;1704599;83;21849;-65
2022/07/17 17:15:36;;;;;;;112.25;100.40;;;;;;;17.87;49.67;99924.11;1701528;83;20989;-65
2022/07/17 17:18:04;;;;;;;44.30;39.27;;;;;;;17.80;49.96;99923.66;1699759;83;21658;-66
2022/07/17 17:20:31;;;;;;;90.00;80.45;;;;;;;17.75;50.39;99927.59;1697243;83;21451;-66
2022/07/17 17:22:58;;;;;;;375.53;336.07;;;;;;;17.70;50.50;99933.20;1696993;82;21601;-66
2022/07/17 17:25:25;;;;;;;103.45;92.40;;;;;;;17.65;50.90;99939.30;1698963;82;21617;-63
2022/07/17 17:27:52;;;;;;;155.75;122.07;;;;;;;17.61;51.07;99943.13;1695192;83;21539;-61
2022/07/17 17:30:20;;;;;;;115.42;102.90;;;;;;;17.63;51.00;99970.46;1699717;83;21511;-61
2022/07/17 17:32:47;;;;;;;136.53;123.77;;;;;;;17.62;50.16;99960.80;1704150;83;21033;-64
2022/07/17 17:35:13;;;;;;;78.25;70.83;;;;;;;17.57;49.21;99957.59;1701011;83;21459;-61
2022/07/17 17:37:40;;;;;;;28.27;25.77;;;;;;;17.47;49.46;99954.21;1698618;83;22033;-63
2022/07/17 17:40:10;;;;;;;280.30;253.12;;;;;;;17.42;49.15;99957.67;1698626;83;21467;-66
2022/07/17 17:42:38;;;;;;;41.35;37.03;;;;;;;17.30;49.72;99958.47;1683114;82;21602;-63
2022/07/17 17:45:05;;;;;;;;;;;;;;;17.18;52.08;99964.57;1698316;82;21137;-64
2022/07/17 17:47:33;;;;;;;5.15;2.10;;;;;;;17.01;54.49;99970.52;1690821;83;20430;-63
2022/07/17 17:50:00;;;;;;;1.82;0.78;;;;;;;16.78;55.70;99967.11;1701542;83;21811;-63
2022/07/17 17:52:26;;;;;;;1.85;1.27;;;;;;;16.58;57.20;99981.66;1704110;82;21683;-62
2022/07/17 17:54:53;;;;;;;3.20;0.57;;;;;;;16.38;58.28;99992.17;1702009;83;21559;-63
2022/07/17 17:57:20;;;;;;;1.45;0.60;;;;;;;16.33;59.45;99991.98;1695301;83;21555;-62
2022/07/17 17:59:47;;;;;;;3.08;0.75;;;;;;;16.27;61.16;99998.97;1696212;83;21487;-62
2022/07/17 18:02:14;;;;;;;23.20;14.33;;;;;;;16.25;61.95;100016.78;1688333;82;21732;-62
2022/07/17 18:04:41;;;;;;;35.38;31.68;;;;;;;16.23;61.53;100014.70;1700586;83;21570;-62
2022/07/17 18:07:07;;;;;;;924.05;771.63;;;;;;;16.14;62.12;100020.10;1694978;83;21487;-62
2022/07/17 18:09:34;;;;;;;128.42;111.52;;;;;;;16.04;62.21;100017.60;1694896;83;21483;-62
2022/07/17 18:12:00;;;;;;;19.32;16.27;;;;;;;16.00;62.49;100027.17;1706687;83;21553;-62
2022/07/17 18:14:27;;;;;;;119.77;100.87;;;;;;;15.86;62.32;100024.86;1698092;83;21830;-62
2022/07/17 18:16:54;;;;;;;754.30;533.33;;;;;;;15.72;62.37;100024.29;1702358;83;21529;-63
2022/07/17 18:19:21;;;;;;;746.15;521.37;;;;;;;15.56;62.71;100025.66;1695985;83;21546;-62
2022/07/17 18:21:48;;;;;;;113.88;64.07;;;;;;;15.46;63.10;100024.94;1696458;83;21539;-62
2022/07/17 18:24:15;;;;;;;15.23;9.30;;;;;;;15.43;63.35;100025.14;1699430;83;21546;-62
2022/07/17 18:26:41;;;;;;;8.48;7.78;;;;;;;15.37;63.65;100036.94;1691356;84;22110;-61
2022/07/17 18:29:09;;;;;;;1.47;1.37;;;;;;;15.28;64.50;100033.48;1687797;83;21491;-62
2022/07/17 18:31:36;;;;;;;0.72;0.62;;;;;;;15.25;64.59;100039.78;1703923;83;21011;-62
2022/07/17 18:34:03;;;;;;;2.13;0.60;;;;;;;15.26;64.53;100040.66;1706905;83;21592;-60
2022/07/17 18:36:29;;;;;;;1.67;0.60;;;;;;;15.20;64.19;100041.86;1693310;84;21443;-61
2022/07/17 18:38:56;;;;;;;1.07;0.65;;;;;;;15.11;64.46;100043.20;1705238;82;21772;-60
2022/07/17 18:41:23;;;;;;;1.72;0.62;;;;;;;15.03;64.94;100047.20;1694372;83;21511;-61
2022/07/17 18:43:50;;;;;;;2.58;0.70;;;;;;;14.96;65.31;100046.70;1690348;83;21538;-61
2022/07/17 18:46:17;;;;;;;4.92;0.75;;;;;;;14.92;65.96;100046.48;1693148;83;21516;-61
2022/07/17 18:48:46;;;;;;;1.47;0.60;;;;;;;14.88;67.01;100045.80;1701157;83;21551;-61
2022/07/17 18:51:13;;;;;;;0.68;0.68;;;;;;;14.90;67.34;100054.95;1699184;83;21795;-61
2022/07/17 18:53:40;;;;;;;2.83;0.90;;;;;;;14.87;67.66;100053.34;1697525;84;21412;-61
2022/07/17 18:56:09;;;;;;;1.10;1.00;;;;;;;14.75;69.44;100051.38;1692665;83;21527;-61
2022/07/17 18:58:37;;;;;;;3.30;1.27;;;;;;;14.75;69.44;100051.38;1701582;83;22242;-63
2022/07/17 19:01:03;;;;;;;;;;;;;;;14.70;68.71;100053.40;1695172;82;21648;-61
2022/07/17 19:03:30;;;;;;;1.42;1.10;;;;;;;14.67;69.02;100051.75;1696486;83;21800;-62
2022/07/17 19:05:57;;;;;;;1.03;0.93;;;;;;;14.66;69.08;100048.73;1671729;83;21575;-61
2022/07/17 19:08:24;;;;;;;1.67;1.07;;;;;;;14.71;68.87;100050.67;1706585;83;21559;-61
2022/07/17 19:10:52;;;;;;;1.75;1.30;;;;;;;14.65;68.82;100051.45;1704373;83;21546;-61
2022/07/17 19:13:20;;;;;;;0.93;0.93;;;;;;;14.54;68.79;100049.34;1692878;83;21602;-62
2022/07/17 19:15:47;;;;;;;1.37;1.00;;;;;;;14.44;68.75;100049.45;1693429;83;21780;-64
2022/07/17 19:18:14;;;;;;;1.45;0.85;;;;;;;14.46;68.69;100038.31;1690906;83;21022;-62
2022/07/17 19:20:41;;;;;;;0.70;0.70;;;;;;;14.53;68.40;100041.88;1695596;84;21441;-62
2022/07/17 19:23:08;;;;;;;1.65;0.80;;;;;;;14.58;68.42;100039.03;1694575;83;21593;-63
2022/07/17 19:25:36;;;;;;;2.17;0.93;;;;;;;14.61;68.00;100038.86;1691614;84;21507;-62
2022/07/17 19:28:04;;;;;;;3.08;0.80;;;;;;;14.59;67.73;100041.58;1695088;84;21809;-63
2022/07/17 19:30:31;;;;;;;0.97;0.80;;;;;;;14.52;68.20;100038.86;1688218;84;21621;-62
2022/07/17 19:32:58;;;;;;;0.75;0.75;;;;;;;14.46;68.85;100043.61;1699600;82;21670;-63
2022/07/17 19:35:24;;;;;;;1.72;0.60;;;;;;;14.47;69.15;100050.63;1699039;82;21551;-62
2022/07/17 19:37:51;;;;;;;0.98;0.75;;;;;;;14.51;69.22;100042.91;1691714;82;21526;-62
2022/07/17 19:40:19;;;;;;;1.10;0.70;;;;;;;14.48;69.02;100045.70;1693257;83;21968;-62
2022/07/17 19:42:45;;;;;;;;;;;;;;;14.51;68.69;100050.84;1697010;82;21476;-62
2022/07/17 19:45:12;;;;;;;0.98;0.65;;;;;;;14.49;69.34;100051.39;1657247;85;20448;-62
2022/07/17 19:47:40;;;;;;;1.40;0.60;;;;;;;14.48;69.29;100058.45;1650765;85;21554;-62
2022/07/17 19:50:07;;;;;;;2.55;0.70;;;;;;;14.51;69.75;100065.39;1648430;84;21507;-62
2022/07/17 19:52:37;;;;;;;1.95;0.60;;;;;;;14.56;69.87;100055.41;1631383;86;21714;-62
2022/07/17 19:55:04;;;;;;;;;;;;;;;14.64;70.11;100063.84;1649706;85;21495;-62
2022/07/17 19:57:31;;;;;;;1.10;0.82;;;;;;;14.68;70.03;100068.51;1649752;85;25651;-61
2022/07/17 19:59:59;;;;;;;4.53;0.93;;;;;;;14.69;70.16;100068.43;1701747;83;21420;-62
2022/07/17 20:02:26;;;;;;;2.35;0.70;;;;;;;14.67;70.60;100072.08;1688134;82;20951;-62
2022/07/17 20:04:53;;;;;;;1.77;0.75;;;;;;;14.69;70.47;100075.05;1687750;82;21805;-62
2022/07/17 20:07:19;;;;;;;0.85;0.75;;;;;;;14.72;70.59;100069.57;1695671;83;21429;-63
2022/07/17 20:09:46;;;;;;;0.80;0.72;;;;;;;14.75;70.89;100075.19;1697657;83;21487;-62
2022/07/17 20:12:13;;;;;;;0.95;0.80;;;;;;;14.83;70.76;100078.27;1696541;83;21161;-63
2022/07/17 20:14:41;;;;;;;1.15;0.80;;;;;;;14.85;70.80;100080.84;1699065;83;21557;-62
2022/07/17 20:17:08;;;;;;;1.20;1.10;;;;;;;14.88;70.62;100080.22;1707938;83;21842;-62
2022/07/17 20:19:35;;;;;;;0.83;0.80;;;;;;;14.95;70.19;100076.75;1692668;84;21046;-62
2022/07/17 20:22:03;;;;;;;1.13;0.90;;;;;;;15.00;70.24;100080.02;1701809;83;21534;-63
2022/07/17 20:24:31;;;;;;;1.10;1.00;;;;;;;14.98;70.54;100078.77;1701214;83;21544;-62